Time;durP1;ratioP1;P1;durP2;ratioP2;P2;SDS_P1;SDS_P2;PMS_P1;PMS_P2;Temp;Humidity;BMP_temperature;BMP_pressure;BME280_temperature;BME280_humidity;BME280_pressure;Samples;Min_cycle;Max_cycle;Signal;HPM_P1;HPM_P2
2021/12/24 00:01:03;;;;;;;4.25;2.10;;;7.40;99.90;;;6.71;100.00;96583.53;5017605;28;20025;-44
2021/12/24 00:03:29;;;;;;;3.53;2.22;;;7.40;99.90;;;6.61;100.00;96567.28;5018596;28;20116;-42
2021/12/24 00:05:55;;;;;;;8.30;2.65;;;7.40;99.90;;;6.64;100.00;96575.91;5021123;28;20030;-40
2021/12/24 00:08:21;;;;;;;3.38;2.45;;;7.30;99.90;;;6.61;100.00;96567.28;5022319;28;20647;-41
2021/12/24 00:10:50;;;;;;;5.50;2.88;;;7.30;99.90;;;6.56;100.00;96563.97;5018697;28;20017;-42
2021/12/24 00:13:18;;;;;;;3.97;2.58;;;7.30;99.90;;;6.55;100.00;96563.13;5022708;28;20030;-46
2021/12/24 00:18:47;;;;;;;4.22;2.28;;;7.20;99.90;;;6.49;100.00;96544.97;5022063;28;20048;-42
2021/12/24 00:35:12;;;;;;;2.78;2.22;;;7.40;99.90;;;6.68;100.00;96550.44;5021208;28;20395;-40
2021/12/24 00:37:40;;;;;;;5.63;2.50;;;7.40;99.90;;;6.74;100.00;96552.84;5009671;28;20481;-43
2021/12/24 00:40:19;;;;;;;3.75;2.33;;;7.40;99.90;;;6.77;100.00;96555.34;5021812;28;20036;-47
2021/12/24 00:42:54;;;;;;;7.60;2.30;;;7.40;99.90;;;6.76;100.00;96543.16;5025546;28;20033;-41
2021/12/24 00:45:24;;;;;;;4.20;2.08;;;7.50;99.90;;;6.77;100.00;96542.25;5024377;28;20038;-44
2021/12/24 00:47:51;;;;;;;4.47;2.30;;;7.50;99.90;;;6.80;100.00;96544.78;5045598;23;20037;-35
2021/12/24 00:50:23;;;;;;;3.13;2.10;;;7.50;99.90;;;6.84;100.00;96541.13;5021724;28;20287;-41
2021/12/24 00:53:01;;;;;;;4.30;2.30;;;7.50;99.90;;;6.86;100.00;96531.44;5021789;28;20025;-41
2021/12/24 00:55:29;;;;;;;3.83;2.22;;;7.50;99.90;;;6.92;100.00;96530.34;5022097;28;20041;-39
2021/12/24 00:58:03;;;;;;;4.43;2.08;;;7.60;99.90;;;6.96;100.00;96526.69;5023072;28;20071;-40
2021/12/24 01:00:39;;;;;;;4.20;2.50;;;7.60;99.90;;;6.99;100.00;96537.09;5019958;28;20080;-39
2021/12/24 01:03:09;;;;;;;4.18;2.40;;;7.70;99.90;;;6.99;100.00;96525.75;5021448;28;20041;-37
2021/12/24 01:05:36;;;;;;;2.83;1.90;;;7.70;99.90;;;7.02;100.00;96534.34;5020849;28;20040;-40
2021/12/24 01:08:04;;;;;;;5.57;2.13;;;7.70;99.90;;;7.06;100.00;96530.69;5022986;28;20038;-37
2021/12/24 01:10:39;;;;;;;3.88;2.15;;;7.70;99.90;;;6.99;100.00;96516.09;5017794;28;20033;-38
2021/12/24 01:13:05;;;;;;;3.90;2.20;;;7.80;99.90;;;7.13;100.00;96533.13;5022331;28;20029;-37
2021/12/24 01:15:34;;;;;;;4.13;2.17;;;7.80;99.90;;;7.15;100.00;96533.91;5026216;28;20037;-38
2021/12/24 01:25:47;;;;;;;4.60;1.80;;;7.80;99.90;;;7.10;100.00;96544.56;5023694;28;20040;-38
2021/12/24 01:44:35;;;;;;;3.53;1.75;;;7.60;99.90;;;6.88;100.00;96540.09;5026884;28;20048;-41
2021/12/24 01:47:06;;;;;;;3.40;1.80;;;7.50;99.90;;;6.88;100.00;96545.34;5021146;28;20069;-43
2021/12/24 01:49:33;;;;;;;4.15;1.92;;;7.50;99.90;;;6.84;100.00;96537.66;5021315;28;20030;-40
2021/12/24 01:52:02;;;;;;;3.38;1.95;;;7.50;99.90;;;6.83;100.00;96530.69;5024553;28;20025;-36
2021/12/24 01:54:27;;;;;;;3.42;2.13;;;7.50;99.90;;;6.81;100.00;96528.13;5020072;28;20487;-38
2021/12/24 01:56:53;;;;;;;4.88;1.98;;;7.50;99.90;;;6.82;100.00;96531.59;5025093;28;20029;-33
2021/12/24 01:59:19;;;;;;;2.85;1.73;;;7.50;99.90;;;6.81;100.00;96532.50;5022491;28;20087;-39
2021/12/24 02:01:45;;;;;;;2.95;1.77;;;7.50;99.90;;;6.83;100.00;96522.81;5025183;28;20025;-37
2021/12/24 02:04:13;;;;;;;6.35;1.98;;;7.50;99.90;;;6.84;100.00;96521.94;5021843;28;20455;-39
2021/12/24 02:06:40;;;;;;;3.13;2.05;;;7.50;99.90;;;6.86;100.00;96520.09;5022903;28;20083;-38
2021/12/24 02:09:07;;;;;;;2.63;1.77;;;7.50;99.90;;;6.90;100.00;96512.97;5022691;28;20025;-38
2021/12/24 02:11:38;;;;;;;3.97;1.58;;;7.60;99.90;;;6.91;100.00;96512.06;5004849;28;20025;-39
2021/12/24 02:14:24;;;;;;;3.22;1.98;;;7.60;99.90;;;6.90;100.00;96510.38;5020880;28;20033;-38
2021/12/24 02:30:40;;;;;;;3.97;2.10;;;7.70;99.90;;;7.07;100.00;96494.88;5023450;28;20044;-39
2021/12/24 02:33:06;;;;;;;4.20;2.08;;;7.70;99.90;;;7.08;100.00;96492.16;5024486;28;20450;-41
2021/12/24 02:35:33;;;;;;;3.05;1.77;;;7.70;99.90;;;7.15;99.87;96490.19;5021060;28;20034;-38
2021/12/24 02:37:59;;;;;;;2.97;1.77;;;7.80;99.90;;;7.18;99.64;96490.06;5024078;28;20025;-42
2021/12/24 02:40:26;;;;;;;3.42;1.88;;;7.80;99.90;;;7.24;99.66;96483.72;5002773;28;20030;-39
2021/12/24 02:42:54;;;;;;;2.88;1.90;;;7.90;99.90;;;7.29;99.36;96476.56;5020674;28;20060;-39
2021/12/24 02:45:22;;;;;;;2.75;1.65;;;7.90;99.90;;;7.26;99.20;96476.66;5021148;28;20633;-38
2021/12/24 02:48:10;;;;;;;4.88;1.67;;;7.90;99.90;;;7.26;99.46;96461.78;5022757;28;20052;-36
2021/12/24 02:56:10;;;;;;;4.93;2.03;;;8.00;99.90;;;7.31;99.09;96453.75;5025012;28;20411;-36
2021/12/24 02:58:45;;;;;;;3.30;1.90;;;7.90;99.90;;;7.32;99.03;96451.97;5020417;28;20033;-37
2021/12/24 03:01:14;;;;;;;4.07;1.90;;;8.00;99.90;;;7.30;99.04;96453.78;5023827;28;20034;-37
2021/12/24 03:03:40;;;;;;;4.45;1.80;;;7.90;99.90;;;7.27;99.20;96452.16;5021527;28;20526;-39
2021/12/24 03:06:07;;;;;;;2.38;1.75;;;7.90;99.90;;;7.24;98.99;96439.16;5019489;28;20038;-37
2021/12/24 03:08:33;;;;;;;2.53;1.65;;;7.90;99.90;;;7.26;99.01;96448.66;5021493;28;20041;-37
2021/12/24 03:11:00;;;;;;;4.38;1.92;;;7.90;99.90;;;7.25;99.19;96449.59;5020592;28;20025;-41
2021/12/24 03:13:27;;;;;;;2.15;1.50;;;7.90;99.90;;;7.24;99.26;96453.13;5022214;28;20067;-38
2021/12/24 03:15:56;;;;;;;3.42;1.40;;;7.90;99.90;;;7.24;99.19;96452.25;5026800;28;20028;-36
2021/12/24 03:18:26;;;;;;;2.55;1.90;;;7.90;99.90;;;7.11;99.19;96437.94;5021225;28;20033;-40
2021/12/24 03:21:13;;;;;;;3.25;1.58;;;7.90;99.90;;;7.20;99.25;96445.44;5014054;28;20522;-35
2021/12/24 03:23:43;;;;;;;3.63;1.77;;;7.80;99.90;;;7.20;99.14;96446.28;5020523;28;20198;-36
2021/12/24 03:26:13;;;;;;;3.08;2.10;;;7.80;99.90;;;7.17;99.06;96435.91;5023061;28;20049;-40
2021/12/24 03:28:40;;;;;;;2.97;1.70;;;7.90;99.90;;;7.16;99.12;96434.22;5020896;28;20403;-37
2021/12/24 03:31:07;;;;;;;3.92;1.98;;;7.80;99.90;;;7.14;99.58;96433.44;5021168;28;20033;-38
2021/12/24 03:33:36;;;;;;;2.63;1.77;;;7.80;99.90;;;7.18;99.27;96435.00;5018505;28;20038;-39
2021/12/24 03:36:05;;;;;;;2.35;1.98;;;7.80;99.90;;;7.19;99.30;96428.84;5021243;28;20511;-35
2021/12/24 03:38:33;;;;;;;2.42;1.55;;;7.80;99.90;;;7.18;99.33;96415.81;5017160;28;20113;-38
2021/12/24 03:40:59;;;;;;;3.15;2.00;;;7.80;99.90;;;7.22;99.83;96409.53;5020172;28;20025;-40
2021/12/24 03:43:26;;;;;;;3.22;2.00;;;7.90;99.90;;;7.30;99.53;96406.59;5022720;28;20033;-40
2021/12/24 03:48:56;;;;;;;6.18;1.70;;;8.00;99.90;;;7.39;99.63;96411.47;5022306;28;20037;-39
2021/12/24 03:56:34;;;;;;;4.50;2.03;;;8.20;99.90;;;7.65;99.40;96408.63;4988124;28;20190;-42
2021/12/24 03:59:00;;;;;;;3.65;1.95;;;8.20;99.90;;;7.73;98.88;96403.06;5017300;28;20025;-39
2021/12/24 04:01:26;;;;;;;2.83;1.90;;;8.30;99.90;;;7.77;98.29;96402.03;5021603;28;20029;-39
2021/12/24 04:03:52;;;;;;;4.75;2.30;;;8.40;99.90;;;7.81;97.93;96395.72;5022578;28;20155;-40
2021/12/24 04:06:18;;;;;;;3.50;1.70;;;8.40;99.90;;;7.84;97.78;96400.88;5017080;28;20042;-40
2021/12/24 04:08:44;;;;;;;2.40;1.48;;;8.50;99.90;;;7.86;97.54;96392.94;5023737;28;20022;-40
2021/12/24 04:11:10;;;;;;;3.50;1.95;;;8.50;99.90;;;7.90;97.33;96401.53;5012017;28;20034;-39
2021/12/24 04:13:36;;;;;;;5.10;1.90;;;8.50;99.90;;;7.92;97.32;96397.06;5018601;28;20021;-39
2021/12/24 04:16:03;;;;;;;2.67;2.17;;;8.50;99.90;;;7.97;97.23;96401.19;5022328;28;20114;-39
2021/12/24 04:26:30;;;;;;;3.05;1.77;;;8.60;99.90;;;7.91;96.97;96385.69;5023072;28;20072;-38
2021/12/24 04:28:56;;;;;;;3.97;1.98;;;8.60;99.90;;;7.96;96.20;96393.38;5022220;28;20056;-39
2021/12/24 04:31:29;;;;;;;6.28;2.08;;;8.60;99.90;;;7.96;95.64;96382.88;5021611;28;20479;-38
2021/12/24 04:33:59;;;;;;;5.22;2.00;;;8.60;99.90;;;8.02;95.75;96390.47;5020680;28;20510;-42
2021/12/24 04:39:33;;;;;;;6.60;1.98;;;8.60;99.90;;;8.01;95.62;96383.53;5022602;28;20059;-40
2021/12/24 05:03:36;;;;;;;3.45;1.83;;;8.60;99.90;;;8.04;97.77;96375.53;5021274;28;20037;-37
2021/12/24 05:06:28;;;;;;;2.90;1.83;;;8.60;99.90;;;8.02;97.60;96372.97;5018001;28;20511;-39
2021/12/24 05:08:57;;;;;;;3.83;1.65;;;8.70;99.90;;;8.02;97.67;96374.72;5004665;28;20041;-38
2021/12/24 05:11:24;;;;;;;3.63;2.00;;;8.70;99.90;;;7.98;97.96;96386.28;5023187;28;20116;-38
2021/12/24 05:13:52;;;;;;;4.20;2.10;;;8.60;99.90;;;7.91;98.11;96379.59;5025912;28;20384;-42
2021/12/24 05:16:23;;;;;;;2.85;2.05;;;8.60;99.90;;;7.87;98.12;96373.63;5018952;28;20079;-39
2021/12/24 05:21:35;;;;;;;2.30;1.77;;;8.50;99.90;;;7.79;98.21;96376.56;5016113;28;20543;-38
2021/12/24 05:24:07;;;;;;;3.00;1.70;;;8.40;99.90;;;7.75;98.15;96377.63;5025010;28;20041;-38
2021/12/24 05:26:34;;;;;;;4.57;1.80;;;8.40;99.90;;;7.71;98.17;96376.03;5021742;28;20315;-38
2021/12/24 05:29:02;;;;;;;2.92;2.00;;;8.40;99.90;;;7.61;98.05;96372.94;5021196;28;20503;-39
2021/12/24 05:31:29;;;;;;;2.85;1.67;;;8.30;99.90;;;7.56;98.51;96363.56;5024579;28;20116;-41
2021/12/24 05:33:56;;;;;;;3.20;1.98;;;8.20;99.90;;;7.47;98.85;96370.03;5023935;28;20033;-40
2021/12/24 05:36:22;;;;;;;3.25;1.67;;;8.10;99.90;;;7.44;98.52;96367.53;5020769;28;20573;-37
2021/12/24 05:38:48;;;;;;;3.67;2.00;;;8.10;99.90;;;7.42;98.35;96372.00;5024879;28;20045;-41
2021/12/24 05:41:14;;;;;;;4.38;2.05;;;8.10;99.90;;;7.38;98.79;96380.91;5021658;28;20441;-38
2021/12/24 05:43:40;;;;;;;4.57;1.92;;;8.10;99.90;;;7.31;99.06;96364.56;5025028;28;20446;-40
2021/12/24 05:46:06;;;;;;;2.65;2.08;;;8.00;99.90;;;7.38;100.00;96359.94;5026036;28;20056;-37
2021/12/24 05:48:32;;;;;;;4.32;2.45;;;8.00;99.90;;;7.55;100.00;96372.34;5023922;28;20026;-37
2021/12/24 05:50:58;;;;;;;4.22;2.60;;;8.10;99.90;;;7.65;100.00;96361.41;5021928;28;20079;-38
2021/12/24 05:53:25;;;;;;;2.95;2.10;;;8.20;99.90;;;7.74;100.00;96361.94;5022372;28;20041;-41
2021/12/24 05:55:51;;;;;;;2.95;2.17;;;8.30;99.90;;;7.84;100.00;96373.75;5023333;28;20040;-38
2021/12/24 05:58:18;;;;;;;4.80;2.30;;;8.40;99.90;;;7.96;100.00;96378.47;5018130;28;20400;-41
2021/12/24 06:00:44;;;;;;;5.85;2.17;;;8.50;99.90;;;8.05;100.00;96377.22;5023072;28;20045;-40
2021/12/24 06:03:11;;;;;;;7.53;2.53;;;8.60;99.90;;;8.16;99.55;96374.97;5024311;28;20040;-40
2021/12/24 06:05:38;;;;;;;3.45;2.70;;;8.70;99.90;;;8.22;99.24;96371.25;5021397;28;20065;-36
2021/12/24 06:08:05;;;;;;;4.40;2.25;;;8.80;99.90;;;8.16;98.88;96364.47;5022860;28;20047;-40
2021/12/24 06:10:32;;;;;;;3.58;2.30;;;8.90;99.90;;;8.35;98.37;96382.06;5022530;28;20357;-37
2021/12/24 06:12:58;;;;;;;4.53;2.25;;;8.90;99.90;;;8.38;98.09;96388.03;5023262;28;20191;-41
2021/12/24 06:15:26;;;;;;;4.65;2.17;;;9.00;99.90;;;8.38;97.93;96389.78;5021035;28;20041;-39
2021/12/24 06:17:56;;;;;;;3.63;2.15;;;9.00;99.90;;;8.40;97.93;96391.44;5021187;28;20430;-37
2021/12/24 06:20:25;;;;;;;8.85;2.33;;;9.00;99.90;;;8.40;97.97;96390.59;5022811;28;20044;-42
2021/12/24 06:22:51;;;;;;;4.80;2.20;;;9.00;99.90;;;8.41;97.70;96384.41;5020465;28;20030;-36
2021/12/24 06:25:19;;;;;;;3.97;2.15;;;9.00;99.90;;;8.44;97.76;96389.56;5020898;28;20487;-36
2021/12/24 06:27:46;;;;;;;4.43;2.20;;;9.00;99.90;;;8.42;97.67;96391.41;5016709;28;20139;-37
2021/12/24 06:30:14;;;;;;;3.67;2.10;;;9.00;99.90;;;8.40;97.55;96380.09;5019555;28;20493;-38
2021/12/24 06:32:40;;;;;;;5.35;2.35;;;9.00;99.90;;;8.36;97.44;96387.25;5022725;28;20217;-42
2021/12/24 06:35:09;;;;;;;5.50;2.40;;;9.00;99.90;;;8.40;97.44;96382.72;5019723;28;20036;-42
2021/12/24 06:37:37;;;;;;;3.03;2.55;;;9.00;99.90;;;8.38;97.34;96389.78;5022679;28;20449;-38
2021/12/24 06:40:04;;;;;;;3.45;2.20;;;9.00;99.90;;;8.38;97.30;96392.41;5022689;28;20395;-41
2021/12/24 06:42:30;;;;;;;10.63;2.53;;;9.00;99.90;;;8.36;97.37;96397.78;5016116;28;20079;-38
2021/12/24 06:44:56;;;;;;;4.07;2.10;;;9.00;99.90;;;8.39;97.40;96402.03;5017758;28;20041;-42
2021/12/24 06:47:22;;;;;;;4.03;2.70;;;9.00;99.90;;;8.43;97.02;96401.00;5021279;28;20431;-39
2021/12/24 06:49:47;;;;;;;5.07;2.30;;;9.00;99.90;;;8.39;97.05;96402.88;5020070;28;20030;-40
2021/12/24 06:52:13;;;;;;;7.65;2.67;;;9.00;99.90;;;8.34;97.68;96399.59;5021356;28;20029;-36
2021/12/24 06:54:39;;;;;;;4.10;2.17;;;9.00;99.90;;;8.34;97.92;96404.84;5018119;28;20466;-38
2021/12/24 06:57:12;;;;;;;3.75;2.38;;;8.90;99.90;;;8.33;97.98;96399.69;5024011;28;20041;-39
2021/12/24 06:59:37;;;;;;;3.83;2.38;;;8.90;99.90;;;8.35;98.19;96400.47;5021465;28;20034;-38
2021/12/24 07:02:04;;;;;;;4.93;2.88;;;9.00;99.90;;;8.38;98.92;96390.66;5018437;28;20037;-36
2021/12/24 07:04:29;;;;;;;5.55;2.90;;;9.00;99.90;;;8.44;100.00;96400.09;5019092;28;20360;-38
2021/12/24 07:06:55;;;;;;;4.35;2.65;;;9.00;99.90;;;8.32;100.00;96404.06;5021629;28;20029;-37
2021/12/24 07:09:22;;;;;;;4.10;2.88;;;8.90;99.90;;;8.28;100.00;96399.88;5024114;28;20525;-38
2021/12/24 07:11:49;;;;;;;4.25;2.58;;;8.90;99.90;;;8.28;100.00;96399.03;5019775;28;20029;-41
2021/12/24 07:14:15;;;;;;;3.65;2.63;;;8.90;99.90;;;8.26;100.00;96395.63;5021083;28;20099;-39
2021/12/24 07:16:41;;;;;;;6.30;2.92;;;8.90;99.90;;;8.18;100.00;96396.81;5021070;28;20080;-37
2021/12/24 07:19:06;;;;;;;5.32;2.78;;;8.80;99.90;;;8.16;100.00;96398.63;5019801;28;20130;-41
2021/12/24 07:21:35;;;;;;;6.38;3.10;;;8.80;99.90;;;8.10;100.00;96401.50;5017928;28;20030;-40
2021/12/24 07:24:02;;;;;;;4.15;2.50;;;8.70;99.90;;;8.07;100.00;96401.63;5023534;28;20021;-37
2021/12/24 07:26:28;;;;;;;7.82;3.10;;;8.70;99.90;;;8.13;100.00;96403.16;5021363;28;20038;-40
2021/12/24 07:28:53;;;;;;;5.10;3.30;;;8.60;99.90;;;8.05;100.00;96392.97;5016242;28;20107;-38
2021/12/24 07:31:20;;;;;;;4.93;2.78;;;8.70;99.90;;;8.01;100.00;96387.00;5018921;28;20041;-41
2021/12/24 07:33:46;;;;;;;5.00;2.83;;;8.60;99.90;;;7.94;100.00;96393.44;5015054;28;20064;-42
2021/12/24 07:36:11;;;;;;;6.03;2.95;;;8.50;99.90;;;7.92;100.00;96397.91;5021269;28;20048;-42
2021/12/24 07:38:37;;;;;;;7.00;2.90;;;8.50;99.90;;;7.86;100.00;96392.06;5017864;28;20179;-38
2021/12/24 07:41:04;;;;;;;8.73;3.42;;;8.40;99.90;;;7.79;100.00;96383.59;5023212;28;20124;-38
2021/12/24 07:43:30;;;;;;;8.02;2.80;;;8.40;99.90;;;7.75;100.00;96392.50;5019990;28;20057;-38
2021/12/24 07:45:56;;;;;;;5.40;3.13;;;8.30;99.90;;;7.72;100.00;96377.75;5018048;28;20061;-40
2021/12/24 07:48:31;;;;;;;5.72;2.97;;;8.30;99.90;;;7.70;100.00;96353.34;5019940;28;20037;-40
2021/12/24 07:53:25;;;;;;;5.57;3.00;;;8.30;99.90;;;7.73;100.00;96395.19;5021093;28;20482;-38
2021/12/24 07:55:57;;;;;;;5.03;2.70;;;8.30;99.90;;;7.72;100.00;96393.50;5022011;28;20032;-37
2021/12/24 07:58:23;;;;;;;4.55;2.85;;;8.40;99.90;;;7.77;100.00;96388.91;5021837;28;20046;-38
2021/12/24 08:00:50;;;;;;;4.57;2.25;;;8.30;99.90;;;7.76;100.00;96386.34;5014275;28;20037;-38
2021/12/24 08:03:16;;;;;;;5.65;2.60;;;8.30;99.90;;;7.79;100.00;96396.72;5017578;28;20033;-35
2021/12/24 08:05:45;;;;;;;5.20;2.50;;;8.40;99.90;;;7.76;100.00;96397.69;5024499;28;20069;-37
2021/12/24 08:08:11;;;;;;;5.32;2.67;;;8.40;99.90;;;7.78;100.00;96397.63;5016578;28;20494;-39
2021/12/24 08:10:41;;;;;;;3.55;2.20;;;8.40;99.90;;;7.80;100.00;96382.66;5019290;28;20029;-39
2021/12/24 08:13:07;;;;;;;4.10;2.60;;;8.40;99.90;;;7.81;100.00;96390.47;5015480;28;20056;-39
2021/12/24 08:15:33;;;;;;;3.67;2.28;;;8.40;99.90;;;7.82;100.00;96394.84;5018608;28;20280;-39
2021/12/24 08:17:59;;;;;;;3.13;2.20;;;8.40;99.90;;;7.89;100.00;96384.91;5020584;28;20075;-36
2021/12/24 08:20:25;;;;;;;2.80;2.20;;;8.50;99.90;;;7.87;100.00;96397.25;5018427;28;20029;-37
2021/12/24 08:22:53;;;;;;;4.63;2.63;;;8.50;99.90;;;7.87;100.00;96404.28;5021276;28;20426;-37
2021/12/24 08:25:21;;;;;;;3.28;2.38;;;8.50;99.90;;;7.88;100.00;96401.59;5017302;28;20065;-40
2021/12/24 08:27:47;;;;;;;3.50;2.05;;;8.50;99.90;;;7.95;100.00;96402.16;5014748;28;20373;-37
2021/12/24 08:30:13;;;;;;;5.28;2.33;;;8.60;99.90;;;8.02;100.00;96406.22;5017713;28;20041;-43
2021/12/24 08:32:41;;;;;;;4.47;2.60;;;8.60;99.90;;;8.05;100.00;96402.63;5021068;28;20113;-37
2021/12/24 08:35:13;;;;;;;3.90;2.30;;;8.60;99.90;;;8.01;100.00;96405.38;5024671;28;20034;-38
2021/12/24 08:37:41;;;;;;;3.80;2.33;;;8.60;99.90;;;8.11;100.00;96402.38;5003501;28;20041;-41
2021/12/24 08:40:08;;;;;;;6.15;2.72;;;8.70;99.90;;;8.07;100.00;96406.03;5020318;28;20041;-39
2021/12/24 08:42:34;;;;;;;4.25;2.35;;;8.70;99.90;;;8.12;100.00;96404.09;5022819;28;20390;-37
2021/12/24 08:45:02;;;;;;;4.30;2.40;;;8.70;99.90;;;8.07;100.00;96404.25;5023477;28;20029;-42
2021/12/24 08:47:27;;;;;;;5.45;2.17;;;8.70;99.90;;;8.15;100.00;96389.03;5020087;28;20029;-39
2021/12/24 08:49:53;;;;;;;4.65;2.10;;;8.70;99.90;;;8.15;100.00;96398.72;5022186;28;20404;-37
2021/12/24 08:52:19;;;;;;;3.78;2.47;;;8.70;99.90;;;8.13;100.00;96393.50;5018537;28;20252;-37
2021/12/24 08:54:45;;;;;;;4.60;2.10;;;8.70;99.90;;;8.11;100.00;96400.63;5020397;28;20034;-37
2021/12/24 08:57:10;;;;;;;3.17;2.10;;;8.70;99.90;;;8.10;100.00;96401.50;5016228;28;20112;-36
2021/12/24 08:59:36;;;;;;;3.90;2.30;;;8.70;99.90;;;8.10;100.00;96401.50;5026249;28;20041;-39
2021/12/24 09:02:03;;;;;;;2.92;2.17;;;8.70;99.90;;;8.10;100.00;96404.16;5023391;28;20049;-40
2021/12/24 09:04:30;;;;;;;5.25;2.30;;;8.70;99.90;;;8.07;100.00;96390.28;5019781;28;20037;-39
2021/12/24 09:06:55;;;;;;;2.40;2.00;;;8.70;99.90;;;8.09;100.00;96389.28;5018544;28;20176;-38
2021/12/24 09:09:21;;;;;;;5.10;2.25;;;8.70;99.90;;;8.04;100.00;96393.91;5020876;28;20034;-39
2021/12/24 09:11:47;;;;;;;5.03;2.40;;;8.70;99.90;;;8.07;100.00;96401.63;5016487;28;20048;-38
2021/12/24 09:14:17;;;;;;;5.70;2.30;;;8.70;99.90;;;8.07;100.00;96399.00;5020561;28;20026;-39
2021/12/24 09:16:45;;;;;;;4.15;2.55;;;8.70;99.90;;;8.10;100.00;96396.25;5019975;28;20114;-40
2021/12/24 09:19:14;;;;;;;2.65;1.95;;;8.70;99.90;;;8.07;100.00;96399.00;5024085;28;20026;-39
2021/12/24 09:21:40;;;;;;;4.15;2.42;;;8.70;99.90;;;7.95;100.00;96378.53;5017637;28;20593;-39
2021/12/24 09:24:07;;;;;;;3.33;2.17;;;8.60;99.90;;;8.01;100.00;96389.63;5018869;28;20116;-37
2021/12/24 09:26:36;;;;;;;3.42;2.38;;;8.60;99.90;;;8.00;100.00;96387.06;5018143;28;20041;-40
2021/12/24 09:29:05;;;;;;;4.10;2.42;;;8.60;99.90;;;8.02;100.00;96393.09;5007241;28;20119;-41
2021/12/24 09:31:31;;;;;;;4.28;2.47;;;8.60;99.90;;;8.03;100.00;96389.56;5020379;28;20049;-42
2021/12/24 09:33:57;;;;;;;3.72;2.40;;;8.60;99.90;;;8.02;100.00;96386.09;5016061;28;22226;-39
2021/12/24 09:36:26;;;;;;;3.85;2.45;;;8.60;99.90;;;8.02;100.00;96387.84;5020403;28;20029;-40
2021/12/24 09:38:55;;;;;;;6.20;2.38;;;8.70;99.90;;;7.99;100.00;96388.00;5023024;28;20033;-39
2021/12/24 09:41:21;;;;;;;5.13;2.30;;;8.60;99.90;;;7.97;100.00;96380.19;5023113;28;20034;-38
2021/12/24 09:43:47;;;;;;;3.33;2.33;;;8.60;99.90;;;7.97;100.00;96374.09;5022795;28;20457;-38
2021/12/24 09:46:13;;;;;;;4.47;2.65;;;8.60;99.90;;;7.96;100.00;96375.00;5014850;28;20030;-39
2021/12/24 09:48:40;;;;;;;5.07;2.38;;;8.60;99.90;;;7.97;100.00;96368.84;5017137;28;20083;-38
2021/12/24 09:51:06;;;;;;;3.67;2.63;;;8.60;99.90;;;7.91;100.00;96374.34;5015716;28;20426;-37
2021/12/24 09:53:32;;;;;;;4.93;2.58;;;8.50;99.90;;;7.80;100.00;96364.28;5021016;28;20033;-39
2021/12/24 09:55:58;;;;;;;3.67;2.13;;;8.50;99.90;;;7.86;100.00;96365.81;5019440;28;20049;-39
2021/12/24 09:58:24;;;;;;;4.15;2.50;;;8.50;99.90;;;7.82;100.00;96368.59;5024422;28;20029;-39
2021/12/24 10:00:50;;;;;;;5.35;2.28;;;8.50;99.90;;;7.77;100.00;96357.41;5019237;28;20145;-40
2021/12/24 10:03:35;;;;;;;3.75;2.10;;;8.50;99.90;;;7.90;100.00;96367.41;5016565;28;20033;-40
2021/12/24 10:06:04;;;;;;;6.63;2.65;;;8.50;99.90;;;7.96;100.00;96372.38;5019250;28;20043;-41
2021/12/24 10:08:31;;;;;;;4.85;2.50;;;8.50;99.90;;;7.93;100.00;96365.50;5017949;28;20029;-39
2021/12/24 10:11:09;;;;;;;4.40;2.40;;;8.60;99.90;;;7.96;100.00;96364.50;5003719;28;20458;-37
2021/12/24 10:13:43;;;;;;;5.57;2.63;;;8.60;99.90;;;7.96;100.00;96365.34;5018062;28;20025;-41
2021/12/24 10:16:17;;;;;;;7.38;2.80;;;8.60;99.90;;;8.03;100.00;96363.31;5021074;28;20037;-41
2021/12/24 10:18:52;;;;;;;3.30;2.38;;;8.70;99.90;;;8.06;100.00;96368.44;5011461;28;20590;-38
2021/12/24 10:21:23;;;;;;;4.22;2.33;;;8.70;99.90;;;8.05;100.00;96365.88;5011437;28;20395;-38
2021/12/24 10:24:04;;;;;;;3.53;2.40;;;8.70;99.90;;;8.03;100.00;96358.06;5017238;28;20034;-39
2021/12/24 10:26:33;;;;;;;6.40;2.45;;;8.70;99.90;;;8.08;100.00;96356.09;5017235;28;20329;-40
2021/12/24 10:29:04;;;;;;;5.22;2.28;;;8.70;99.90;;;8.08;100.00;96357.88;5013469;28;20068;-41
2021/12/24 10:31:43;;;;;;;4.40;2.30;;;8.70;99.90;;;8.06;100.00;96341.31;5012351;28;20034;-38
2021/12/24 10:34:30;;;;;;;5.18;2.95;;;8.70;99.90;;;8.05;100.00;96337.84;5010209;28;20047;-40
2021/12/24 10:37:06;;;;;;;8.30;2.72;;;8.70;99.90;;;8.08;100.00;96340.34;5007561;28;20044;-36
2021/12/24 10:40:06;;;;;;;6.72;3.70;;;8.70;99.90;;;8.12;100.00;96338.44;5013452;28;20038;-40
2021/12/24 10:42:37;;;;;;;4.20;2.53;;;8.70;99.90;;;8.11;100.00;96337.59;5013811;28;20560;-36
2021/12/24 10:45:18;;;;;;;4.50;2.40;;;8.70;99.90;;;8.02;100.00;96319.59;5011184;28;20113;-39
2021/12/24 10:47:43;;;;;;;3.55;2.42;;;8.70;99.90;;;8.08;100.00;96326.38;5018213;28;20734;-38
2021/12/24 10:50:32;;;;;;;5.28;2.40;;;8.70;99.90;;;8.06;100.00;96334.31;5017797;28;20033;-39
2021/12/24 10:53:20;;;;;;;3.78;2.13;;;8.70;99.90;;;8.06;100.00;96323.81;5022097;28;20041;-39
2021/12/24 10:55:54;;;;;;;3.25;2.08;;;8.70;99.90;;;8.02;100.00;96307.34;5014258;28;20109;-38
2021/12/24 10:58:23;;;;;;;3.25;2.00;;;8.70;99.90;;;8.11;100.00;96316.59;5014446;28;20057;-38
2021/12/24 11:00:52;;;;;;;6.22;2.38;;;8.70;99.90;;;8.09;100.00;96317.56;5012132;28;20025;-39
2021/12/24 11:03:31;;;;;;;4.40;2.30;;;8.70;99.90;;;8.07;100.00;96322.03;5012678;28;20124;-36
2021/12/24 11:06:12;;;;;;;4.53;2.05;;;8.70;99.90;;;8.03;100.00;96305.56;5003793;28;20400;-37
2021/12/24 11:08:40;;;;;;;2.92;2.00;;;8.70;99.90;;;8.08;100.00;96308.81;5022988;28;20033;-37
2021/12/24 11:11:11;;;;;;;3.83;1.75;;;8.70;99.90;;;8.09;100.00;96307.88;5022162;28;20033;-38
2021/12/24 11:13:41;;;;;;;2.75;2.00;;;8.70;99.90;;;8.11;100.00;96315.69;5016079;28;20128;-39
2021/12/24 11:16:10;;;;;;;3.47;2.30;;;8.70;99.90;;;8.10;100.00;96306.97;5018846;28;20040;-39
2021/12/24 11:18:40;;;;;;;3.30;2.20;;;8.70;99.90;;;8.13;100.00;96312.09;5017773;28;20683;-39
2021/12/24 11:21:17;;;;;;;3.47;2.05;;;8.70;99.90;;;8.03;100.00;96289.78;5017928;28;20038;-38
2021/12/24 11:23:43;;;;;;;3.35;2.08;;;8.80;99.90;;;8.15;100.00;96309.41;5018945;28;20038;-39
2021/12/24 11:26:26;;;;;;;3.88;1.90;;;8.80;99.90;;;8.18;100.00;96310.13;5017138;28;20503;-37
2021/12/24 11:28:53;;;;;;;6.63;1.90;;;8.80;99.90;;;8.17;100.00;96303.16;5018393;28;20530;-38
2021/12/24 11:31:23;;;;;;;4.07;1.90;;;8.80;99.90;;;8.13;100.00;96293.72;5012083;28;20040;-38
2021/12/24 11:33:52;;;;;;;3.15;1.80;;;8.80;99.90;;;8.16;100.00;96303.22;5019947;28;20041;-38
2021/12/24 11:36:21;;;;;;;3.92;1.75;;;8.80;99.90;;;8.20;100.00;96300.41;5017414;28;20036;-42
2021/12/24 11:38:54;;;;;;;2.30;1.70;;;8.80;99.90;;;8.27;100.00;96302.75;5021528;28;20029;-42
2021/12/24 11:41:26;;;;;;;1.52;1.30;;;8.80;99.90;;;8.29;100.00;96299.16;5018460;28;20297;-38
2021/12/24 11:43:55;;;;;;;1.80;1.45;;;8.90;99.90;;;8.35;100.00;96290.13;5023842;28;20029;-37
2021/12/24 11:46:25;;;;;;;4.18;1.42;;;8.90;99.90;;;8.41;100.00;96293.31;5017543;28;20037;-38
2021/12/24 11:48:55;;;;;;;5.13;1.70;;;9.00;99.90;;;8.42;100.00;96291.59;5015558;28;20431;-40
2021/12/24 11:51:28;;;;;;;2.35;1.55;;;9.10;99.90;;;8.50;100.00;96288.59;5001322;28;20557;-41
2021/12/24 11:54:00;;;;;;;1.90;1.40;;;9.10;99.90;;;8.56;100.00;96289.16;5021711;28;20029;-38
2021/12/24 11:56:26;;;;;;;5.05;1.35;;;9.20;99.90;;;8.60;100.00;96285.47;5000700;28;20403;-39
2021/12/24 11:58:58;;;;;;;1.95;1.20;;;9.20;99.90;;;8.61;100.00;96288.94;5015318;28;20045;-38
2021/12/24 12:01:30;;;;;;;3.47;1.37;;;9.20;99.90;;;8.64;100.00;96282.69;5022499;28;20038;-40
2021/12/24 12:03:59;;;;;;;;;;;9.20;99.90;;;8.65;100.00;96273.88;5021307;28;20026;-36
2021/12/24 12:06:24;;;;;;;1.80;1.20;;;9.30;99.90;;;8.77;100.00;96278.56;5014301;28;19925;-38
2021/12/24 12:09:11;;;;;;;2.70;1.20;;;9.40;99.90;;;8.86;100.00;96264.97;5020990;28;20403;-39
2021/12/24 12:11:41;;;;;;;2.25;1.00;;;9.50;99.90;;;9.05;100.00;96267.56;5024073;28;20032;-38
2021/12/24 12:14:25;;;;;;;4.05;1.27;;;9.60;99.90;;;9.23;100.00;96264.97;5025035;28;20033;-40
2021/12/24 12:16:57;;;;;;;1.83;1.10;;;9.80;99.90;;;9.34;100.00;96258.22;5023361;28;20669;-40
2021/12/24 12:25:29;;;;;;;1.35;0.85;;;10.00;99.90;;;9.47;100.00;96252.34;5022062;28;20542;-42
2021/12/24 12:27:59;;;;;;;0.88;0.80;;;10.00;99.90;;;9.52;100.00;96247.69;5016314;28;20045;-38